Nearby METAR Reports

 

KT74 - Taylor Muni, Texas, USA
Distance from station: W 2mi, 3km
Updated: Sat, 13-Aug-2022 6:55am CDT
Clear
Clear
 Wind from NW
Wind: NW 3 mph , 6 km/h
Temperature: 73°F , 23°C
Dew Point: 70°F , 21°C
Humidity: 89%
Barometer: 30.01 inHg , 1016.3 hPa
Clouds: Clear
Visibility: 10 miles , 16 km
2022/08/13 11:55 KT74 131155Z AUTO 31003KT 10SM CLR 23/21 A3001 RMK AO2 LTG DSNT S T02280205 10264 20223
KEDC - Austin Exec, Texas, USA
Distance from station: SW 16mi, 25km
Updated: Fri, 29-Jul-2022 8:55am CDT
NOT Current
Partly cloudy
Partly cloudy
 Wind from SSW
Wind: SSW 12 mph , 19 km/h, Gust: 20 mph , 31 km/h
Temperature: 82°F , 28°C
Heat Index: 87°F , 31°C
Dew Point: 73°F , 23°C
Humidity: 74%
Barometer: 30.04 inHg , 1017.3 hPa
Clouds: Partly cloudy
Visibility: 10 miles , 16 km
Cloud details: Partly cloudy 1300 ft
2022/07/29 13:55 KEDC 291355Z AUTO 21010G17KT 10SM SCT013 28/23 A3004 RMK AO2
 
KGTU - Georgetown, Texas, USA
Distance from station: WNW 17mi, 28km
Updated: Sat, 13-Aug-2022 6:56am CDT
Clear
Clear
 Wind from calm
Wind: Calm
Temperature: 75°F , 24°C
Dew Point: 68°F , 20°C
Humidity: 78%
Barometer: 30.05 inHg , 1017.6 hPa
Clouds: Clear
Visibility: 10 miles , 16 km
2022/08/13 11:56 KGTU 131156Z 00000KT 10SM CLR 24/20 A3005 RMK AO2 SLP166 T02390200 10278 20239 52008
KATT - Austin/Mabry, Texas, USA
Distance from station: SW 28mi, 45km
Updated: Sat, 13-Aug-2022 6:51am CDT
Clear
Clear
 Wind from calm
Wind: Calm
Temperature: 79°F , 26°C
Dew Point: 72°F , 22°C
Humidity: 79%
Barometer: 30.02 inHg , 1016.6 hPa
Clouds: Clear
Visibility: 10 miles , 16 km
2022/08/13 11:51 KATT 131151Z AUTO 00000KT 10SM CLR 26/22 A3002 RMK AO2 SLP150 T02610222 10289 20256 53006
 
KAUS - Austin, Texas, USA
Distance from station: SSW 32mi, 51km
Updated: Sat, 13-Aug-2022 6:53am CDT
Few Clouds
Few Clouds
 Wind from calm
Wind: Calm
Temperature: 73°F , 23°C
Dew Point: 72°F , 22°C
Humidity: 94%
Barometer: 30.00 inHg , 1015.9 hPa
Clouds: Few Clouds
Visibility: 10 miles , 16 km
Cloud details: Few Clouds 4800 ft
2022/08/13 11:53 KAUS 131153Z 00000KT 10SM FEW048 23/22 A3000 RMK AO2 SLP146 T02330217 10267 20228 51004 $
KRYW - Lago Vista, Texas, USA
Distance from station: W 33mi, 54km
Updated: Sat, 13-Aug-2022 6:55am CDT
Clear
Clear
 Wind from calm
Wind: Calm
Temperature: 73°F , 23°C
Dew Point: 68°F , 20°C
Humidity: 83%
Barometer: 30.06 inHg , 1017.9 hPa
Clouds: Clear
Visibility: 10 miles , 16 km
2022/08/13 11:55 KRYW 131155Z AUTO 00000KT 10SM CLR 23/20 A3006 RMK AO2 LTG DSNT SE T02340198 10260 20230
 
KILE - Killeen Muni, Texas, USA
Distance from station: NNW 37mi, 59km
Updated: Sat, 13-Aug-2022 6:56am CDT
Clear
Clear
 Wind from calm
Wind: Calm
Temperature: 75°F , 24°C
Dew Point: 70°F , 21°C
Humidity: 83%
Barometer: 30.04 inHg , 1017.3 hPa
Clouds: Clear
Visibility: 10 miles , 16 km
2022/08/13 11:56 KILE 131156Z AUTO 00000KT 10SM CLR 24/21 A3004 RMK AO2 SLP159 7//// T02390206 10278 20233 53008
KTPL - Temple/Miller, Texas, USA
Distance from station: N 38mi, 61km
Updated: Sat, 13-Aug-2022 6:51am CDT
Clear
Clear
 Wind from N
Wind: N 5 mph , 7 km/h
Temperature: 75°F , 24°C
Dew Point: 70°F , 21°C
Humidity: 83%
Barometer: 30.03 inHg , 1016.9 hPa
Clouds: Clear
Visibility: 10 miles , 16 km
2022/08/13 11:51 KTPL 131151Z AUTO 01004KT 10SM CLR 24/21 A3003 RMK AO2 SLP157 7//// T02390206 10272 20228 53006
 
KGYB - Giddings-Lee, Texas, USA
Distance from station: SE 39mi, 62km
Updated: Sat, 13-Aug-2022 6:55am CDT
Clear
Clear
 Wind from calm
Wind: Calm
Temperature: 75°F , 24°C
Dew Point: 73°F , 23°C
Humidity: 94%
Barometer: 30.01 inHg , 1016.3 hPa
Clouds: Clear
Visibility: 7 miles , 11 km
2022/08/13 11:55 KGYB 131155Z AUTO 00000KT 7SM CLR 24/23 A3001 RMK AO2 70001 T02380226 10250 20233
KHLR - Ft Hood/Killeen, Texas, USA
Distance from station: NNW 42mi, 67km
Updated: Sat, 13-Aug-2022 6:58am CDT
Clear
Clear
 Wind from NE
Wind: NE 5 mph , 7 km/h
Temperature: 77°F , 25°C
Dew Point: 68°F , 20°C
Humidity: 74%
Barometer: 30.04 inHg , 1017.3 hPa
Clouds: Clear
Visibility: 9 miles , 14 km
2022/08/13 11:58 KHLR 131158Z AUTO 04004KT 9SM CLR 25/20 A3004 RMK AO2 SLP160 T02540204 10278 20247 53008